sensor_id;sensor_type;location;lat;lon;timestamp;P1;durP1;ratioP1;P2;durP2;ratioP2
3755;SDS011;1893;52.526;13.360;2023-01-13T00:01:14;0.80;;;0.80;;
3755;SDS011;1893;52.526;13.360;2023-01-13T00:03:42;1.07;;;0.97;;
3755;SDS011;1893;52.526;13.360;2023-01-13T00:06:08;1.40;;;0.80;;
3755;SDS011;1893;52.526;13.360;2023-01-13T00:08:37;0.60;;;0.60;;
3755;SDS011;1893;52.526;13.360;2023-01-13T00:11:03;0.70;;;0.70;;
3755;SDS011;1893;52.526;13.360;2023-01-13T00:13:29;0.80;;;0.80;;
3755;SDS011;1893;52.526;13.360;2023-01-13T00:18:23;0.80;;;0.80;;
3755;SDS011;1893;52.526;13.360;2023-01-13T00:21:01;0.93;;;0.80;;
3755;SDS011;1893;52.526;13.360;2023-01-13T00:23:28;0.77;;;0.70;;
3755;SDS011;1893;52.526;13.360;2023-01-13T00:25:55;0.60;;;0.60;;
3755;SDS011;1893;52.526;13.360;2023-01-13T00:28:21;2.20;;;1.37;;
3755;SDS011;1893;52.526;13.360;2023-01-13T00:30:47;4.20;;;1.93;;
3755;SDS011;1893;52.526;13.360;2023-01-13T00:33:13;2.23;;;0.83;;
3755;SDS011;1893;52.526;13.360;2023-01-13T00:35:38;0.60;;;0.60;;
3755;SDS011;1893;52.526;13.360;2023-01-13T00:38:04;0.60;;;0.60;;
3755;SDS011;1893;52.526;13.360;2023-01-13T00:40:29;1.53;;;0.70;;
3755;SDS011;1893;52.526;13.360;2023-01-13T00:42:55;0.80;;;0.60;;
3755;SDS011;1893;52.526;13.360;2023-01-13T00:45:39;0.77;;;0.70;;
3755;SDS011;1893;52.526;13.360;2023-01-13T00:48:05;0.93;;;0.70;;
3755;SDS011;1893;52.526;13.360;2023-01-13T00:50:31;1.63;;;0.67;;
3755;SDS011;1893;52.526;13.360;2023-01-13T00:52:59;0.80;;;0.80;;
3755;SDS011;1893;52.526;13.360;2023-01-13T00:55:25;0.90;;;0.70;;
3755;SDS011;1893;52.526;13.360;2023-01-13T00:57:51;0.70;;;0.70;;
3755;SDS011;1893;52.526;13.360;2023-01-13T01:00:17;0.63;;;0.60;;
3755;SDS011;1893;52.526;13.360;2023-01-13T01:02:43;0.70;;;0.60;;
3755;SDS011;1893;52.526;13.360;2023-01-13T01:05:08;0.70;;;0.70;;
3755;SDS011;1893;52.526;13.360;2023-01-13T01:07:34;1.27;;;0.60;;
3755;SDS011;1893;52.526;13.360;2023-01-13T01:10:00;0.70;;;0.60;;
3755;SDS011;1893;52.526;13.360;2023-01-13T01:12:26;0.80;;;0.70;;
3755;SDS011;1893;52.526;13.360;2023-01-13T01:14:52;0.70;;;0.60;;
3755;SDS011;1893;52.526;13.360;2023-01-13T01:17:17;0.67;;;0.60;;
3755;SDS011;1893;52.526;13.360;2023-01-13T01:19:43;0.90;;;0.63;;
3755;SDS011;1893;52.526;13.360;2023-01-13T01:22:08;1.10;;;0.60;;
3755;SDS011;1893;52.526;13.360;2023-01-13T01:24:34;0.80;;;0.80;;
3755;SDS011;1893;52.526;13.360;2023-01-13T01:27:00;0.63;;;0.60;;
3755;SDS011;1893;52.526;13.360;2023-01-13T01:29:25;1.20;;;0.60;;
3755;SDS011;1893;52.526;13.360;2023-01-13T01:31:51;2.23;;;0.80;;
3755;SDS011;1893;52.526;13.360;2023-01-13T01:34:17;0.87;;;0.80;;
3755;SDS011;1893;52.526;13.360;2023-01-13T01:36:42;1.20;;;0.83;;
3755;SDS011;1893;52.526;13.360;2023-01-13T01:39:08;0.60;;;0.60;;
3755;SDS011;1893;52.526;13.360;2023-01-13T01:41:34;0.70;;;0.70;;
3755;SDS011;1893;52.526;13.360;2023-01-13T01:44:03;0.80;;;0.70;;
3755;SDS011;1893;52.526;13.360;2023-01-13T01:46:47;0.60;;;0.60;;
3755;SDS011;1893;52.526;13.360;2023-01-13T01:49:26;0.70;;;0.70;;
3755;SDS011;1893;52.526;13.360;2023-01-13T01:54:43;0.80;;;0.70;;
3755;SDS011;1893;52.526;13.360;2023-01-13T01:57:14;0.63;;;0.63;;
3755;SDS011;1893;52.526;13.360;2023-01-13T01:59:43;0.93;;;0.93;;
3755;SDS011;1893;52.526;13.360;2023-01-13T02:02:10;0.60;;;0.60;;
3755;SDS011;1893;52.526;13.360;2023-01-13T02:04:38;0.60;;;0.60;;
3755;SDS011;1893;52.526;13.360;2023-01-13T02:07:07;6.00;;;0.70;;
3755;SDS011;1893;52.526;13.360;2023-01-13T02:09:33;0.73;;;0.67;;
3755;SDS011;1893;52.526;13.360;2023-01-13T02:12:00;0.60;;;0.50;;
3755;SDS011;1893;52.526;13.360;2023-01-13T02:14:44;0.60;;;0.60;;
3755;SDS011;1893;52.526;13.360;2023-01-13T02:22:33;1.40;;;0.77;;
3755;SDS011;1893;52.526;13.360;2023-01-13T02:25:22;0.57;;;0.50;;
3755;SDS011;1893;52.526;13.360;2023-01-13T02:31:32;0.70;;;0.60;;
3755;SDS011;1893;52.526;13.360;2023-01-13T02:34:52;1.27;;;0.50;;
3755;SDS011;1893;52.526;13.360;2023-01-13T02:36:55;0.50;;;0.50;;
3755;SDS011;1893;52.526;13.360;2023-01-13T02:39:39;1.17;;;0.60;;
3755;SDS011;1893;52.526;13.360;2023-01-13T02:42:09;0.57;;;0.57;;
3755;SDS011;1893;52.526;13.360;2023-01-13T02:45:06;1.50;;;0.63;;
3755;SDS011;1893;52.526;13.360;2023-01-13T02:47:49;0.60;;;0.60;;
3755;SDS011;1893;52.526;13.360;2023-01-13T02:50:21;3.10;;;0.60;;
3755;SDS011;1893;52.526;13.360;2023-01-13T02:52:58;1.10;;;1.00;;
3755;SDS011;1893;52.526;13.360;2023-01-13T02:55:36;0.80;;;0.70;;
3755;SDS011;1893;52.526;13.360;2023-01-13T02:58:08;0.70;;;0.50;;
3755;SDS011;1893;52.526;13.360;2023-01-13T03:00:36;0.50;;;0.40;;
3755;SDS011;1893;52.526;13.360;2023-01-13T03:03:03;1.73;;;0.60;;
3755;SDS011;1893;52.526;13.360;2023-01-13T03:05:29;0.60;;;0.50;;
3755;SDS011;1893;52.526;13.360;2023-01-13T03:08:02;1.00;;;0.50;;
3755;SDS011;1893;52.526;13.360;2023-01-13T03:19:28;0.93;;;0.50;;
3755;SDS011;1893;52.526;13.360;2023-01-13T03:24:54;0.60;;;0.60;;
3755;SDS011;1893;52.526;13.360;2023-01-13T03:27:51;0.90;;;0.57;;
3755;SDS011;1893;52.526;13.360;2023-01-13T03:30:41;0.60;;;0.60;;
3755;SDS011;1893;52.526;13.360;2023-01-13T03:33:18;0.63;;;0.60;;
3755;SDS011;1893;52.526;13.360;2023-01-13T03:35:51;1.60;;;0.53;;
3755;SDS011;1893;52.526;13.360;2023-01-13T03:38:23;0.60;;;0.50;;
3755;SDS011;1893;52.526;13.360;2023-01-13T03:40:57;1.70;;;0.50;;
3755;SDS011;1893;52.526;13.360;2023-01-13T03:43:47;1.20;;;0.70;;
3755;SDS011;1893;52.526;13.360;2023-01-13T03:47:43;0.93;;;0.40;;
3755;SDS011;1893;52.526;13.360;2023-01-13T03:49:45;0.50;;;0.50;;
3755;SDS011;1893;52.526;13.360;2023-01-13T03:52:17;1.10;;;0.60;;
3755;SDS011;1893;52.526;13.360;2023-01-13T03:55:20;1.10;;;0.53;;
3755;SDS011;1893;52.526;13.360;2023-01-13T03:58:03;0.80;;;0.50;;
3755;SDS011;1893;52.526;13.360;2023-01-13T04:00:40;1.33;;;0.80;;
3755;SDS011;1893;52.526;13.360;2023-01-13T04:03:19;0.50;;;0.50;;
3755;SDS011;1893;52.526;13.360;2023-01-13T04:05:51;0.70;;;0.50;;
3755;SDS011;1893;52.526;13.360;2023-01-13T04:08:24;1.17;;;0.50;;
3755;SDS011;1893;52.526;13.360;2023-01-13T04:11:02;0.60;;;0.50;;
3755;SDS011;1893;52.526;13.360;2023-01-13T04:13:32;0.60;;;0.60;;
3755;SDS011;1893;52.526;13.360;2023-01-13T04:16:02;0.60;;;0.60;;
3755;SDS011;1893;52.526;13.360;2023-01-13T04:18:30;0.80;;;0.60;;
3755;SDS011;1893;52.526;13.360;2023-01-13T04:20:57;1.43;;;0.70;;
3755;SDS011;1893;52.526;13.360;2023-01-13T04:23:24;0.50;;;0.50;;
3755;SDS011;1893;52.526;13.360;2023-01-13T04:25:51;0.83;;;0.50;;
3755;SDS011;1893;52.526;13.360;2023-01-13T04:28:18;0.70;;;0.70;;
3755;SDS011;1893;52.526;13.360;2023-01-13T04:30:44;0.50;;;0.50;;
3755;SDS011;1893;52.526;13.360;2023-01-13T04:33:10;0.67;;;0.50;;
3755;SDS011;1893;52.526;13.360;2023-01-13T04:35:36;1.43;;;0.70;;
3755;SDS011;1893;52.526;13.360;2023-01-13T04:38:02;1.53;;;0.50;;
3755;SDS011;1893;52.526;13.360;2023-01-13T04:40:29;1.17;;;0.50;;
3755;SDS011;1893;52.526;13.360;2023-01-13T04:42:55;0.60;;;0.60;;
3755;SDS011;1893;52.526;13.360;2023-01-13T04:45:20;0.57;;;0.40;;
3755;SDS011;1893;52.526;13.360;2023-01-13T04:47:46;0.63;;;0.57;;
3755;SDS011;1893;52.526;13.360;2023-01-13T04:50:13;0.60;;;0.60;;
3755;SDS011;1893;52.526;13.360;2023-01-13T04:52:43;0.50;;;0.40;;
3755;SDS011;1893;52.526;13.360;2023-01-13T04:55:10;1.73;;;0.50;;
3755;SDS011;1893;52.526;13.360;2023-01-13T04:57:36;1.63;;;0.60;;
3755;SDS011;1893;52.526;13.360;2023-01-13T05:00:03;0.80;;;0.60;;
3755;SDS011;1893;52.526;13.360;2023-01-13T05:02:30;0.57;;;0.50;;
3755;SDS011;1893;52.526;13.360;2023-01-13T05:04:55;1.20;;;0.60;;
3755;SDS011;1893;52.526;13.360;2023-01-13T05:07:21;0.60;;;0.50;;
3755;SDS011;1893;52.526;13.360;2023-01-13T05:09:47;0.90;;;0.60;;
3755;SDS011;1893;52.526;13.360;2023-01-13T05:12:13;0.60;;;0.60;;
3755;SDS011;1893;52.526;13.360;2023-01-13T05:14:57;0.90;;;0.80;;
3755;SDS011;1893;52.526;13.360;2023-01-13T05:17:42;1.20;;;0.60;;
3755;SDS011;1893;52.526;13.360;2023-01-13T05:20:08;0.70;;;0.60;;
3755;SDS011;1893;52.526;13.360;2023-01-13T05:22:35;0.60;;;0.57;;
3755;SDS011;1893;52.526;13.360;2023-01-13T05:25:19;1.23;;;0.53;;
3755;SDS011;1893;52.526;13.360;2023-01-13T05:27:56;0.70;;;0.50;;
3755;SDS011;1893;52.526;13.360;2023-01-13T05:30:27;0.70;;;0.70;;
3755;SDS011;1893;52.526;13.360;2023-01-13T05:32:54;0.80;;;0.80;;
3755;SDS011;1893;52.526;13.360;2023-01-13T05:35:20;1.23;;;0.80;;
3755;SDS011;1893;52.526;13.360;2023-01-13T05:37:46;1.20;;;0.60;;
3755;SDS011;1893;52.526;13.360;2023-01-13T05:40:13;0.90;;;0.50;;
3755;SDS011;1893;52.526;13.360;2023-01-13T05:45:45;0.63;;;0.60;;
3755;SDS011;1893;52.526;13.360;2023-01-13T05:48:12;1.80;;;0.67;;
3755;SDS011;1893;52.526;13.360;2023-01-13T05:50:38;1.63;;;0.60;;
3755;SDS011;1893;52.526;13.360;2023-01-13T05:53:04;0.93;;;0.60;;
3755;SDS011;1893;52.526;13.360;2023-01-13T05:55:30;0.80;;;0.80;;
3755;SDS011;1893;52.526;13.360;2023-01-13T05:57:56;1.07;;;0.80;;
3755;SDS011;1893;52.526;13.360;2023-01-13T06:00:21;1.10;;;0.80;;
3755;SDS011;1893;52.526;13.360;2023-01-13T06:02:47;0.70;;;0.70;;
3755;SDS011;1893;52.526;13.360;2023-01-13T06:05:13;0.70;;;0.70;;
3755;SDS011;1893;52.526;13.360;2023-01-13T06:07:39;0.97;;;0.87;;
3755;SDS011;1893;52.526;13.360;2023-01-13T06:10:05;0.97;;;0.70;;
3755;SDS011;1893;52.526;13.360;2023-01-13T06:12:31;0.70;;;0.67;;
3755;SDS011;1893;52.526;13.360;2023-01-13T06:14:57;0.90;;;0.80;;
3755;SDS011;1893;52.526;13.360;2023-01-13T06:17:22;1.00;;;0.80;;
3755;SDS011;1893;52.526;13.360;2023-01-13T06:19:48;0.70;;;0.70;;
3755;SDS011;1893;52.526;13.360;2023-01-13T06:22:22;0.73;;;0.70;;
3755;SDS011;1893;52.526;13.360;2023-01-13T06:24:50;0.90;;;0.80;;
3755;SDS011;1893;52.526;13.360;2023-01-13T06:27:18;0.70;;;0.70;;
3755;SDS011;1893;52.526;13.360;2023-01-13T06:29:45;1.23;;;0.80;;
3755;SDS011;1893;52.526;13.360;2023-01-13T06:35:01;0.70;;;0.70;;
3755;SDS011;1893;52.526;13.360;2023-01-13T06:37:30;0.60;;;0.60;;
3755;SDS011;1893;52.526;13.360;2023-01-13T06:39:57;0.70;;;0.60;;
3755;SDS011;1893;52.526;13.360;2023-01-13T06:42:27;1.17;;;0.70;;
3755;SDS011;1893;52.526;13.360;2023-01-13T06:45:15;1.40;;;0.93;;
3755;SDS011;1893;52.526;13.360;2023-01-13T06:47:41;1.40;;;0.80;;
3755;SDS011;1893;52.526;13.360;2023-01-13T06:50:07;2.40;;;0.70;;
3755;SDS011;1893;52.526;13.360;2023-01-13T06:52:33;1.60;;;0.70;;
3755;SDS011;1893;52.526;13.360;2023-01-13T06:54:59;1.53;;;0.60;;
3755;SDS011;1893;52.526;13.360;2023-01-13T06:57:24;2.87;;;0.60;;
3755;SDS011;1893;52.526;13.360;2023-01-13T06:59:50;1.17;;;0.60;;
3755;SDS011;1893;52.526;13.360;2023-01-13T07:02:16;1.50;;;0.53;;
3755;SDS011;1893;52.526;13.360;2023-01-13T07:04:41;0.60;;;0.60;;
3755;SDS011;1893;52.526;13.360;2023-01-13T07:07:08;2.43;;;0.57;;
3755;SDS011;1893;52.526;13.360;2023-01-13T07:09:34;0.50;;;0.50;;
3755;SDS011;1893;52.526;13.360;2023-01-13T07:11:59;0.60;;;0.60;;
3755;SDS011;1893;52.526;13.360;2023-01-13T07:14:25;1.47;;;0.60;;
3755;SDS011;1893;52.526;13.360;2023-01-13T07:17:09;0.80;;;0.80;;
3755;SDS011;1893;52.526;13.360;2023-01-13T07:19:35;0.60;;;0.50;;
3755;SDS011;1893;52.526;13.360;2023-01-13T07:22:00;0.60;;;0.60;;
3755;SDS011;1893;52.526;13.360;2023-01-13T07:24:26;1.07;;;0.63;;
3755;SDS011;1893;52.526;13.360;2023-01-13T07:26:51;0.90;;;0.70;;
3755;SDS011;1893;52.526;13.360;2023-01-13T07:29:17;0.60;;;0.60;;
3755;SDS011;1893;52.526;13.360;2023-01-13T07:31:43;0.63;;;0.63;;
3755;SDS011;1893;52.526;13.360;2023-01-13T07:34:08;1.37;;;0.60;;
3755;SDS011;1893;52.526;13.360;2023-01-13T07:36:34;5.13;;;1.10;;
3755;SDS011;1893;52.526;13.360;2023-01-13T07:39:00;0.93;;;0.63;;
3755;SDS011;1893;52.526;13.360;2023-01-13T07:41:26;0.80;;;0.60;;
3755;SDS011;1893;52.526;13.360;2023-01-13T07:44:11;1.00;;;0.80;;
3755;SDS011;1893;52.526;13.360;2023-01-13T07:46:37;3.57;;;0.80;;
3755;SDS011;1893;52.526;13.360;2023-01-13T07:49:03;1.27;;;0.63;;
3755;SDS011;1893;52.526;13.360;2023-01-13T07:51:29;1.70;;;0.77;;
3755;SDS011;1893;52.526;13.360;2023-01-13T07:53:55;0.70;;;0.70;;
3755;SDS011;1893;52.526;13.360;2023-01-13T07:56:21;0.70;;;0.60;;
3755;SDS011;1893;52.526;13.360;2023-01-13T07:58:46;2.30;;;0.60;;
3755;SDS011;1893;52.526;13.360;2023-01-13T08:01:15;1.30;;;0.60;;
3755;SDS011;1893;52.526;13.360;2023-01-13T08:03:42;1.00;;;0.70;;
3755;SDS011;1893;52.526;13.360;2023-01-13T08:06:08;1.67;;;1.20;;
3755;SDS011;1893;52.526;13.360;2023-01-13T08:08:35;0.77;;;0.60;;
3755;SDS011;1893;52.526;13.360;2023-01-13T08:11:02;0.70;;;0.60;;
3755;SDS011;1893;52.526;13.360;2023-01-13T08:13:28;1.57;;;0.60;;
3755;SDS011;1893;52.526;13.360;2023-01-13T08:15:58;1.43;;;0.60;;
3755;SDS011;1893;52.526;13.360;2023-01-13T08:18:29;0.60;;;0.60;;
3755;SDS011;1893;52.526;13.360;2023-01-13T08:20:59;1.53;;;0.70;;
3755;SDS011;1893;52.526;13.360;2023-01-13T08:23:30;0.63;;;0.60;;
3755;SDS011;1893;52.526;13.360;2023-01-13T08:25:59;0.77;;;0.73;;
3755;SDS011;1893;52.526;13.360;2023-01-13T08:28:27;0.60;;;0.60;;
3755;SDS011;1893;52.526;13.360;2023-01-13T08:30:52;0.60;;;0.60;;
3755;SDS011;1893;52.526;13.360;2023-01-13T08:33:18;1.67;;;0.90;;
3755;SDS011;1893;52.526;13.360;2023-01-13T08:35:44;0.90;;;0.80;;
3755;SDS011;1893;52.526;13.360;2023-01-13T08:38:10;2.03;;;1.00;;
3755;SDS011;1893;52.526;13.360;2023-01-13T08:40:38;0.80;;;0.60;;
3755;SDS011;1893;52.526;13.360;2023-01-13T08:43:04;5.60;;;0.77;;
3755;SDS011;1893;52.526;13.360;2023-01-13T08:45:30;0.90;;;0.77;;
3755;SDS011;1893;52.526;13.360;2023-01-13T08:47:55;2.43;;;1.20;;
3755;SDS011;1893;52.526;13.360;2023-01-13T08:50:21;0.70;;;0.57;;
3755;SDS011;1893;52.526;13.360;2023-01-13T08:52:47;1.33;;;0.50;;
3755;SDS011;1893;52.526;13.360;2023-01-13T08:55:12;1.10;;;0.60;;
3755;SDS011;1893;52.526;13.360;2023-01-13T08:57:38;0.60;;;0.60;;
3755;SDS011;1893;52.526;13.360;2023-01-13T09:00:04;0.87;;;0.67;;
3755;SDS011;1893;52.526;13.360;2023-01-13T09:02:31;2.90;;;0.50;;
3755;SDS011;1893;52.526;13.360;2023-01-13T09:04:57;2.87;;;0.63;;
3755;SDS011;1893;52.526;13.360;2023-01-13T09:07:26;1.00;;;0.70;;
3755;SDS011;1893;52.526;13.360;2023-01-13T09:09:51;1.30;;;0.80;;
3755;SDS011;1893;52.526;13.360;2023-01-13T09:12:17;1.47;;;0.60;;
3755;SDS011;1893;52.526;13.360;2023-01-13T09:15:02;1.70;;;0.70;;
3755;SDS011;1893;52.526;13.360;2023-01-13T09:17:30;2.43;;;0.80;;
3755;SDS011;1893;52.526;13.360;2023-01-13T09:19:55;1.43;;;0.70;;
3755;SDS011;1893;52.526;13.360;2023-01-13T09:22:21;1.27;;;0.67;;
3755;SDS011;1893;52.526;13.360;2023-01-13T09:24:50;0.70;;;0.67;;
3755;SDS011;1893;52.526;13.360;2023-01-13T09:27:16;1.00;;;0.80;;
3755;SDS011;1893;52.526;13.360;2023-01-13T09:29:42;2.03;;;0.93;;
3755;SDS011;1893;52.526;13.360;2023-01-13T09:32:11;2.07;;;0.80;;
3755;SDS011;1893;52.526;13.360;2023-01-13T09:34:38;4.60;;;0.93;;
3755;SDS011;1893;52.526;13.360;2023-01-13T09:37:22;2.33;;;0.80;;
3755;SDS011;1893;52.526;13.360;2023-01-13T09:39:48;7.27;;;0.83;;
3755;SDS011;1893;52.526;13.360;2023-01-13T09:45:09;1.10;;;0.67;;
3755;SDS011;1893;52.526;13.360;2023-01-13T09:53:16;2.40;;;0.80;;
3755;SDS011;1893;52.526;13.360;2023-01-13T09:55:46;2.70;;;0.80;;
3755;SDS011;1893;52.526;13.360;2023-01-13T09:58:13;0.97;;;0.73;;
3755;SDS011;1893;52.526;13.360;2023-01-13T10:00:42;1.07;;;0.80;;
3755;SDS011;1893;52.526;13.360;2023-01-13T10:06:12;1.83;;;0.70;;
3755;SDS011;1893;52.526;13.360;2023-01-13T10:08:51;1.93;;;0.70;;
3755;SDS011;1893;52.526;13.360;2023-01-13T10:11:17;0.90;;;0.70;;
3755;SDS011;1893;52.526;13.360;2023-01-13T10:14:11;1.50;;;0.90;;
3755;SDS011;1893;52.526;13.360;2023-01-13T10:27:26;1.30;;;0.77;;
3755;SDS011;1893;52.526;13.360;2023-01-13T10:30:08;1.67;;;0.70;;
3755;SDS011;1893;52.526;13.360;2023-01-13T10:32:53;2.33;;;0.80;;
3755;SDS011;1893;52.526;13.360;2023-01-13T10:38:14;2.60;;;0.80;;
3755;SDS011;1893;52.526;13.360;2023-01-13T10:40:49;2.53;;;0.77;;
3755;SDS011;1893;52.526;13.360;2023-01-13T10:43:19;4.93;;;1.00;;
3755;SDS011;1893;52.526;13.360;2023-01-13T10:45:54;1.43;;;0.70;;
3755;SDS011;1893;52.526;13.360;2023-01-13T10:48:32;0.70;;;0.60;;
3755;SDS011;1893;52.526;13.360;2023-01-13T10:51:09;1.00;;;0.90;;
3755;SDS011;1893;52.526;13.360;2023-01-13T10:53:53;1.53;;;0.70;;
3755;SDS011;1893;52.526;13.360;2023-01-13T10:56:26;2.00;;;0.97;;
3755;SDS011;1893;52.526;13.360;2023-01-13T11:04:55;1.53;;;0.80;;
3755;SDS011;1893;52.526;13.360;2023-01-13T11:10:26;3.13;;;0.80;;
3755;SDS011;1893;52.526;13.360;2023-01-13T11:18:36;1.30;;;0.60;;
3755;SDS011;1893;52.526;13.360;2023-01-13T11:22:24;3.80;;;0.73;;
3755;SDS011;1893;52.526;13.360;2023-01-13T11:24:34;1.83;;;0.70;;
3755;SDS011;1893;52.526;13.360;2023-01-13T11:27:16;1.03;;;0.70;;
3755;SDS011;1893;52.526;13.360;2023-01-13T11:29:53;2.10;;;0.73;;
3755;SDS011;1893;52.526;13.360;2023-01-13T11:32:22;1.30;;;0.70;;
3755;SDS011;1893;52.526;13.360;2023-01-13T11:34:49;1.67;;;1.00;;
3755;SDS011;1893;52.526;13.360;2023-01-13T11:37:27;1.47;;;0.70;;
3755;SDS011;1893;52.526;13.360;2023-01-13T11:42:40;1.17;;;0.87;;
3755;SDS011;1893;52.526;13.360;2023-01-13T11:47:41;1.80;;;0.83;;
3755;SDS011;1893;52.526;13.360;2023-01-13T11:50:21;3.20;;;0.90;;
3755;SDS011;1893;52.526;13.360;2023-01-13T11:55:46;1.50;;;0.87;;
3755;SDS011;1893;52.526;13.360;2023-01-13T11:58:44;3.60;;;0.90;;
3755;SDS011;1893;52.526;13.360;2023-01-13T12:01:15;4.80;;;1.10;;
3755;SDS011;1893;52.526;13.360;2023-01-13T12:03:52;2.17;;;0.70;;
3755;SDS011;1893;52.526;13.360;2023-01-13T12:06:34;3.13;;;0.90;;
3755;SDS011;1893;52.526;13.360;2023-01-13T12:11:56;2.93;;;0.87;;
3755;SDS011;1893;52.526;13.360;2023-01-13T12:26:03;3.63;;;1.00;;
3755;SDS011;1893;52.526;13.360;2023-01-13T12:28:37;4.67;;;1.00;;
3755;SDS011;1893;52.526;13.360;2023-01-13T12:31:08;5.87;;;0.90;;
3755;SDS011;1893;52.526;13.360;2023-01-13T12:39:10;3.10;;;1.00;;
3755;SDS011;1893;52.526;13.360;2023-01-13T12:47:36;3.83;;;1.07;;
3755;SDS011;1893;52.526;13.360;2023-01-13T12:50:55;5.70;;;0.83;;
3755;SDS011;1893;52.526;13.360;2023-01-13T12:52:59;2.57;;;1.00;;
3755;SDS011;1893;52.526;13.360;2023-01-13T12:55:52;1.83;;;0.90;;
3755;SDS011;1893;52.526;13.360;2023-01-13T12:58:23;5.57;;;0.87;;
3755;SDS011;1893;52.526;13.360;2023-01-13T13:03:40;1.70;;;1.10;;
3755;SDS011;1893;52.526;13.360;2023-01-13T13:06:27;3.10;;;0.80;;
3755;SDS011;1893;52.526;13.360;2023-01-13T13:08:59;1.57;;;0.90;;
3755;SDS011;1893;52.526;13.360;2023-01-13T13:11:45;3.73;;;0.70;;
3755;SDS011;1893;52.526;13.360;2023-01-13T13:17:02;2.00;;;0.90;;
3755;SDS011;1893;52.526;13.360;2023-01-13T13:25:27;3.63;;;1.00;;
3755;SDS011;1893;52.526;13.360;2023-01-13T13:38:22;1.80;;;0.90;;
3755;SDS011;1893;52.526;13.360;2023-01-13T13:41:19;1.67;;;0.90;;
3755;SDS011;1893;52.526;13.360;2023-01-13T13:47:08;1.83;;;1.00;;
3755;SDS011;1893;52.526;13.360;2023-01-13T13:52:30;5.10;;;1.37;;
3755;SDS011;1893;52.526;13.360;2023-01-13T13:55:06;5.03;;;0.80;;
3755;SDS011;1893;52.526;13.360;2023-01-13T13:57:44;2.60;;;0.80;;
3755;SDS011;1893;52.526;13.360;2023-01-13T14:02:47;3.63;;;0.90;;
3755;SDS011;1893;52.526;13.360;2023-01-13T14:05:25;4.67;;;1.00;;
3755;SDS011;1893;52.526;13.360;2023-01-13T14:10:37;2.63;;;1.00;;
3755;SDS011;1893;52.526;13.360;2023-01-13T14:15:45;2.17;;;0.73;;
3755;SDS011;1893;52.526;13.360;2023-01-13T14:18:14;5.17;;;1.07;;
3755;SDS011;1893;52.526;13.360;2023-01-13T14:20:42;2.73;;;1.00;;
3755;SDS011;1893;52.526;13.360;2023-01-13T14:23:15;3.33;;;1.00;;
3755;SDS011;1893;52.526;13.360;2023-01-13T14:25:46;2.43;;;0.90;;
3755;SDS011;1893;52.526;13.360;2023-01-13T14:30:53;2.67;;;1.10;;
3755;SDS011;1893;52.526;13.360;2023-01-13T14:33:25;3.53;;;1.27;;
3755;SDS011;1893;52.526;13.360;2023-01-13T14:36:03;6.97;;;1.13;;
3755;SDS011;1893;52.526;13.360;2023-01-13T14:39:33;4.27;;;1.57;;
3755;SDS011;1893;52.526;13.360;2023-01-13T14:41:35;2.87;;;1.07;;
3755;SDS011;1893;52.526;13.360;2023-01-13T14:44:07;3.63;;;1.13;;
3755;SDS011;1893;52.526;13.360;2023-01-13T14:46:40;1.90;;;1.40;;
3755;SDS011;1893;52.526;13.360;2023-01-13T14:52:10;7.07;;;1.43;;
3755;SDS011;1893;52.526;13.360;2023-01-13T14:54:44;2.07;;;0.80;;
3755;SDS011;1893;52.526;13.360;2023-01-13T14:57:25;1.83;;;1.43;;
3755;SDS011;1893;52.526;13.360;2023-01-13T15:02:40;2.40;;;1.87;;
3755;SDS011;1893;52.526;13.360;2023-01-13T15:05:32;8.27;;;2.03;;
3755;SDS011;1893;52.526;13.360;2023-01-13T15:07:59;4.53;;;1.30;;
3755;SDS011;1893;52.526;13.360;2023-01-13T15:10:35;6.90;;;2.10;;
3755;SDS011;1893;52.526;13.360;2023-01-13T15:15:49;5.40;;;1.10;;
3755;SDS011;1893;52.526;13.360;2023-01-13T15:18:16;2.33;;;1.00;;
3755;SDS011;1893;52.526;13.360;2023-01-13T15:20:42;3.17;;;1.20;;
3755;SDS011;1893;52.526;13.360;2023-01-13T15:23:08;3.97;;;1.00;;
3755;SDS011;1893;52.526;13.360;2023-01-13T15:25:36;5.77;;;1.50;;
3755;SDS011;1893;52.526;13.360;2023-01-13T15:28:03;3.23;;;0.97;;
3755;SDS011;1893;52.526;13.360;2023-01-13T15:30:31;5.13;;;1.03;;
3755;SDS011;1893;52.526;13.360;2023-01-13T15:32:57;4.57;;;1.50;;
3755;SDS011;1893;52.526;13.360;2023-01-13T15:35:24;2.73;;;1.10;;
3755;SDS011;1893;52.526;13.360;2023-01-13T15:37:51;3.80;;;1.47;;
3755;SDS011;1893;52.526;13.360;2023-01-13T15:40:20;1.77;;;1.00;;
3755;SDS011;1893;52.526;13.360;2023-01-13T15:42:47;7.47;;;2.00;;
3755;SDS011;1893;52.526;13.360;2023-01-13T15:45:31;1.80;;;1.10;;
3755;SDS011;1893;52.526;13.360;2023-01-13T15:48:19;5.23;;;1.30;;
3755;SDS011;1893;52.526;13.360;2023-01-13T15:50:46;3.00;;;0.83;;
3755;SDS011;1893;52.526;13.360;2023-01-13T15:53:12;4.47;;;1.13;;
3755;SDS011;1893;52.526;13.360;2023-01-13T15:55:38;2.70;;;0.97;;
3755;SDS011;1893;52.526;13.360;2023-01-13T15:58:06;1.70;;;0.80;;
3755;SDS011;1893;52.526;13.360;2023-01-13T16:00:32;3.77;;;1.30;;
3755;SDS011;1893;52.526;13.360;2023-01-13T16:02:57;4.43;;;1.63;;
3755;SDS011;1893;52.526;13.360;2023-01-13T16:05:24;5.73;;;1.20;;
3755;SDS011;1893;52.526;13.360;2023-01-13T16:07:50;3.37;;;0.90;;
3755;SDS011;1893;52.526;13.360;2023-01-13T16:10:17;4.50;;;1.43;;
3755;SDS011;1893;52.526;13.360;2023-01-13T16:12:45;3.70;;;1.10;;
3755;SDS011;1893;52.526;13.360;2023-01-13T16:15:12;4.13;;;1.00;;
3755;SDS011;1893;52.526;13.360;2023-01-13T16:17:38;2.93;;;0.80;;
3755;SDS011;1893;52.526;13.360;2023-01-13T16:20:05;3.67;;;0.90;;
3755;SDS011;1893;52.526;13.360;2023-01-13T16:22:36;4.10;;;0.90;;
3755;SDS011;1893;52.526;13.360;2023-01-13T16:25:01;5.40;;;1.10;;
3755;SDS011;1893;52.526;13.360;2023-01-13T16:27:27;5.00;;;1.30;;
3755;SDS011;1893;52.526;13.360;2023-01-13T16:29:53;1.97;;;1.00;;
3755;SDS011;1893;52.526;13.360;2023-01-13T16:32:21;3.90;;;1.80;;
3755;SDS011;1893;52.526;13.360;2023-01-13T16:34:47;5.63;;;1.50;;
3755;SDS011;1893;52.526;13.360;2023-01-13T16:37:20;6.47;;;1.70;;
3755;SDS011;1893;52.526;13.360;2023-01-13T16:39:47;4.80;;;1.20;;
3755;SDS011;1893;52.526;13.360;2023-01-13T16:42:13;4.70;;;1.30;;
3755;SDS011;1893;52.526;13.360;2023-01-13T16:44:38;3.63;;;0.97;;
3755;SDS011;1893;52.526;13.360;2023-01-13T16:47:04;3.97;;;1.10;;
3755;SDS011;1893;52.526;13.360;2023-01-13T16:49:30;3.57;;;1.17;;
3755;SDS011;1893;52.526;13.360;2023-01-13T16:51:56;3.90;;;0.80;;
3755;SDS011;1893;52.526;13.360;2023-01-13T16:54:21;3.20;;;1.10;;
3755;SDS011;1893;52.526;13.360;2023-01-13T16:56:47;0.67;;;0.60;;
3755;SDS011;1893;52.526;13.360;2023-01-13T16:59:13;2.93;;;1.00;;
3755;SDS011;1893;52.526;13.360;2023-01-13T17:01:39;6.03;;;1.17;;
3755;SDS011;1893;52.526;13.360;2023-01-13T17:04:06;6.23;;;1.20;;
3755;SDS011;1893;52.526;13.360;2023-01-13T17:06:42;7.33;;;1.10;;
3755;SDS011;1893;52.526;13.360;2023-01-13T17:09:16;7.33;;;1.33;;
3755;SDS011;1893;52.526;13.360;2023-01-13T17:11:43;9.47;;;0.83;;
3755;SDS011;1893;52.526;13.360;2023-01-13T17:14:09;5.20;;;1.20;;
3755;SDS011;1893;52.526;13.360;2023-01-13T17:16:35;2.60;;;1.00;;
3755;SDS011;1893;52.526;13.360;2023-01-13T17:19:01;2.83;;;1.03;;
3755;SDS011;1893;52.526;13.360;2023-01-13T17:21:26;5.90;;;1.13;;
3755;SDS011;1893;52.526;13.360;2023-01-13T17:23:52;1.67;;;0.70;;
3755;SDS011;1893;52.526;13.360;2023-01-13T17:28:56;4.50;;;0.70;;
3755;SDS011;1893;52.526;13.360;2023-01-13T17:31:25;2.80;;;0.90;;
3755;SDS011;1893;52.526;13.360;2023-01-13T17:33:52;2.87;;;0.97;;
3755;SDS011;1893;52.526;13.360;2023-01-13T17:36:18;2.07;;;1.10;;
3755;SDS011;1893;52.526;13.360;2023-01-13T17:38:43;4.40;;;1.40;;
3755;SDS011;1893;52.526;13.360;2023-01-13T17:41:09;3.10;;;1.30;;
3755;SDS011;1893;52.526;13.360;2023-01-13T17:43:34;5.33;;;1.17;;
3755;SDS011;1893;52.526;13.360;2023-01-13T17:46:00;4.10;;;1.43;;
3755;SDS011;1893;52.526;13.360;2023-01-13T17:48:26;3.90;;;0.97;;
3755;SDS011;1893;52.526;13.360;2023-01-13T17:50:52;3.67;;;1.20;;
3755;SDS011;1893;52.526;13.360;2023-01-13T17:53:18;4.60;;;1.40;;
3755;SDS011;1893;52.526;13.360;2023-01-13T17:55:50;8.20;;;1.37;;